Time;durP1;ratioP1;P1;durP2;ratioP2;P2;SDS_P1;SDS_P2;PMS_P1;PMS_P2;Temp;Humidity;BMP_temperature;BMP_pressure;BME280_temperature;BME280_humidity;BME280_pressure;Samples;Min_cycle;Max_cycle;Signal;HPM_P1;HPM_P2
2022/11/10 00:01:24;;;;;;;5.60;1.80;;;;;;;;;;5140655;27;20506;-71
2022/11/10 00:03:52;;;;;;;6.70;1.67;;;;;;;;;;5138388;27;20461;-72
2022/11/10 00:06:20;;;;;;;9.03;2.07;;;;;;;;;;5139729;27;20462;-71
2022/11/10 00:08:47;;;;;;;7.27;2.50;;;;;;;;;;5140317;27;20438;-70
2022/11/10 00:11:15;;;;;;;7.50;2.20;;;;;;;;;;5140400;27;20466;-71
2022/11/10 00:19:10;;;;;;;7.03;2.87;;;;;;;;;;5139850;27;20908;-72
2022/11/10 00:21:38;;;;;;;5.50;2.03;;;;;;;;;;5139454;27;20454;-71
2022/11/10 00:24:06;;;;;;;7.07;2.00;;;;;;;;;;5139477;27;20536;-72
2022/11/10 00:26:34;;;;;;;10.10;2.50;;;;;;;;;;5139256;27;20458;-71
2022/11/10 00:29:01;;;;;;;7.73;2.40;;;;;;;;;;5139289;27;20442;-71
2022/11/10 00:31:31;;;;;;;8.37;2.93;;;;;;;;;;5138667;27;20743;-71
2022/11/10 00:33:58;;;;;;;8.80;1.83;;;;;;;;;;5138972;27;20472;-71
2022/11/10 00:36:26;;;;;;;5.87;2.00;;;;;;;;;;5139290;27;20464;-71
2022/11/10 00:38:54;;;;;;;7.20;3.03;;;;;;;;;;5138460;27;20757;-71
2022/11/10 00:41:21;;;;;;;5.40;2.00;;;;;;;;;;5139043;27;20462;-72
2022/11/10 00:43:49;;;;;;;2.53;1.50;;;;;;;;;;5139028;27;20454;-71
2022/11/10 00:46:17;;;;;;;6.00;1.93;;;;;;;;;;5138817;27;20457;-72
2022/11/10 00:48:46;;;;;;;6.80;2.13;;;;;;;;;;5138901;27;20514;-71
2022/11/10 00:51:19;;;;;;;3.30;1.43;;;;;;;;;;5138948;27;20449;-71
2022/11/10 00:53:46;;;;;;;2.80;1.63;;;;;;;;;;5138406;27;20737;-72
2022/11/10 00:56:14;;;;;;;5.07;2.30;;;;;;;;;;5139011;27;20454;-71
2022/11/10 00:58:41;;;;;;;10.97;2.57;;;;;;;;;;5138419;27;20538;-70
2022/11/10 01:01:09;;;;;;;8.77;2.67;;;;;;;;;;5136917;27;20454;-72
2022/11/10 01:03:36;;;;;;;3.63;1.97;;;;;;;;;;5138361;27;20896;-72
2022/11/10 01:06:07;;;;;;;3.50;1.67;;;;;;;;;;5138454;27;20825;-72
2022/11/10 01:08:37;;;;;;;9.00;2.57;;;;;;;;;;5138020;27;20763;-72
2022/11/10 01:11:04;;;;;;;4.13;2.20;;;;;;;;;;5137955;27;20464;-70
2022/11/10 01:13:32;;;;;;;4.20;2.20;;;;;;;;;;5137870;27;20453;-71
2022/11/10 01:16:04;;;;;;;8.83;2.03;;;;;;;;;;5138494;27;20604;-70
2022/11/10 01:18:32;;;;;;;3.90;1.70;;;;;;;;;;5138213;27;20565;-70
2022/11/10 01:20:59;;;;;;;6.60;1.90;;;;;;;;;;5138114;27;20861;-70
2022/11/10 01:23:28;;;;;;;4.60;2.10;;;;;;;;;;5137673;27;20858;-71
2022/11/10 01:25:58;;;;;;;4.60;2.50;;;;;;;;;;5138333;27;20464;-71
2022/11/10 01:28:25;;;;;;;6.47;2.30;;;;;;;;;;5138558;27;20528;-71
2022/11/10 01:30:57;;;;;;;2.97;1.60;;;;;;;;;;5138493;27;20449;-71
2022/11/10 01:33:25;;;;;;;10.47;2.50;;;;;;;;;;5138688;27;20442;-71
2022/11/10 01:35:52;;;;;;;8.57;2.17;;;;;;;;;;5137946;27;20457;-71
2022/11/10 01:38:23;;;;;;;3.33;1.80;;;;;;;;;;5137329;27;20469;-72
2022/11/10 01:40:52;;;;;;;6.97;2.20;;;;;;;;;;5138510;27;20542;-71
2022/11/10 01:43:21;;;;;;;3.10;1.50;;;;;;;;;;5137117;27;20473;-72
2022/11/10 01:45:50;;;;;;;7.87;1.60;;;;;;;;;;5137180;27;20515;-71
2022/11/10 01:48:19;;;;;;;7.60;2.30;;;;;;;;;;5137873;27;20446;-71
2022/11/10 01:50:48;;;;;;;7.70;2.90;;;;;;;;;;5137222;27;20465;-71
2022/11/10 01:53:19;;;;;;;6.63;1.60;;;;;;;;;;5137542;27;20504;-72
2022/11/10 01:55:48;;;;;;;9.53;3.40;;;;;;;;;;5137612;27;20540;-72
2022/11/10 01:58:18;;;;;;;5.97;1.90;;;;;;;;;;5137810;27;20793;-71
2022/11/10 02:00:46;;;;;;;5.43;2.30;;;;;;;;;;5137590;27;20461;-71
2022/11/10 02:03:15;;;;;;;9.13;3.27;;;;;;;;;;5137677;27;20476;-71
2022/11/10 02:05:44;;;;;;;6.30;2.23;;;;;;;;;;5137306;27;20461;-71
2022/11/10 02:08:13;;;;;;;8.03;2.23;;;;;;;;;;5137195;27;20533;-71
2022/11/10 02:10:41;;;;;;;6.13;2.53;;;;;;;;;;5137928;27;20457;-71
2022/11/10 02:13:08;;;;;;;5.97;2.57;;;;;;;;;;5136994;27;20517;-72
2022/11/10 02:15:37;;;;;;;13.87;3.50;;;;;;;;;;5137429;27;20549;-71
2022/11/10 02:18:05;;;;;;;5.00;2.07;;;;;;;;;;5137130;28;20446;-71
2022/11/10 02:20:32;;;;;;;13.20;2.67;;;;;;;;;;5136915;28;20554;-71
2022/11/10 02:23:11;;;;;;;8.97;3.63;;;;;;;;;;5137615;28;21111;-71
2022/11/10 02:25:39;;;;;;;9.57;3.50;;;;;;;;;;5137420;28;20530;-71
2022/11/10 02:28:07;;;;;;;7.23;3.37;;;;;;;;;;5137630;28;20458;-72
2022/11/10 02:30:34;;;;;;;6.00;3.47;;;;;;;;;;5137270;28;20506;-72
2022/11/10 02:33:02;;;;;;;10.47;3.37;;;;;;;;;;5137257;28;20446;-71
2022/11/10 02:35:34;;;;;;;6.60;2.70;;;;;;;;;;5126688;28;20482;-71
2022/11/10 02:38:03;;;;;;;8.80;3.23;;;;;;;;;;5115959;28;20459;-71
2022/11/10 02:40:30;;;;;;;6.33;3.17;;;;;;;;;;5116114;28;20486;-71
2022/11/10 02:42:58;;;;;;;7.17;2.97;;;;;;;;;;5116032;28;20519;-72
2022/11/10 02:45:25;;;;;;;6.00;3.17;;;;;;;;;;5129370;28;20519;-71
2022/11/10 02:47:53;;;;;;;6.47;3.17;;;;;;;;;;5137169;28;20453;-71
2022/11/10 02:50:21;;;;;;;8.80;2.83;;;;;;;;;;5137032;28;20456;-72
2022/11/10 02:52:48;;;;;;;11.97;3.97;;;;;;;;;;5136473;28;20490;-71
2022/11/10 02:55:18;;;;;;;9.00;4.20;;;;;;;;;;5137027;28;20466;-72
2022/11/10 02:57:45;;;;;;;7.33;4.03;;;;;;;;;;5135439;28;20864;-71
2022/11/10 03:00:14;;;;;;;7.10;4.20;;;;;;;;;;5136143;28;20481;-72
2022/11/10 03:02:41;;;;;;;5.33;3.70;;;;;;;;;;5137397;28;20454;-71
2022/11/10 03:05:09;;;;;;;5.63;3.20;;;;;;;;;;5132266;28;20455;-71
2022/11/10 03:07:36;;;;;;;5.87;3.57;;;;;;;;;;5116297;28;20462;-71
2022/11/10 03:10:04;;;;;;;10.23;5.33;;;;;;;;;;5136390;27;20912;-71
2022/11/10 03:12:33;;;;;;;9.03;4.23;;;;;;;;;;5136657;28;20457;-71
2022/11/10 03:15:01;;;;;;;10.97;3.77;;;;;;;;;;5136754;27;20445;-72
2022/11/10 03:17:29;;;;;;;8.50;4.00;;;;;;;;;;5136387;27;20745;-72
2022/11/10 03:19:57;;;;;;;11.53;4.37;;;;;;;;;;5137111;27;20486;-71
2022/11/10 03:22:24;;;;;;;9.00;4.27;;;;;;;;;;5137225;27;20753;-71
2022/11/10 03:24:52;;;;;;;7.33;2.80;;;;;;;;;;5139831;27;20488;-72
2022/11/10 03:27:20;;;;;;;11.00;4.60;;;;;;;;;;5139925;27;20462;-71
2022/11/10 03:29:49;;;;;;;7.53;3.03;;;;;;;;;;5140529;27;20892;-72
2022/11/10 03:32:17;;;;;;;5.80;2.80;;;;;;;;;;5140277;27;20465;-72
2022/11/10 03:34:44;;;;;;;8.90;3.40;;;;;;;;;;5140514;27;20446;-72
2022/11/10 03:37:12;;;;;;;13.60;4.10;;;;;;;;;;5140124;27;20454;-71
2022/11/10 03:39:40;;;;;;;7.80;4.30;;;;;;;;;;5140009;27;21046;-72
2022/11/10 03:42:07;;;;;;;6.40;3.30;;;;;;;;;;5140511;27;20518;-71
2022/11/10 03:44:35;;;;;;;7.00;3.83;;;;;;;;;;5140086;27;20510;-71
2022/11/10 03:47:04;;;;;;;5.97;3.67;;;;;;;;;;5140416;27;20488;-72
2022/11/10 03:49:32;;;;;;;7.77;4.17;;;;;;;;;;5140228;27;20456;-71
2022/11/10 03:51:59;;;;;;;6.33;3.40;;;;;;;;;;5139936;27;20834;-72
2022/11/10 03:54:27;;;;;;;12.10;3.63;;;;;;;;;;5139895;27;20450;-72
2022/11/10 03:56:55;;;;;;;7.23;3.13;;;;;;;;;;5140189;27;20457;-71
2022/11/10 03:59:25;;;;;;;8.13;4.00;;;;;;;;;;5139317;27;20473;-71
2022/11/10 04:01:53;;;;;;;5.70;3.27;;;;;;;;;;5139801;27;20809;-72
2022/11/10 04:09:57;;;;;;;10.60;4.43;;;;;;;;;;5139273;27;20745;-71
2022/11/10 04:18:19;;;;;;;8.50;4.67;;;;;;;;;;5139032;27;20438;-72
2022/11/10 04:20:45;;;;;;;11.13;4.13;;;;;;;;;;5139616;27;20505;-71
2022/11/10 04:23:29;;;;;;;8.47;4.23;;;;;;;;;;5139692;27;20450;-71
2022/11/10 04:28:57;;;;;;;10.73;4.20;;;;;;;;;;5075734;28;20542;-72
2022/11/10 04:31:25;;;;;;;7.40;2.73;;;;;;;;;;5125061;27;20518;-71
2022/11/10 04:33:53;;;;;;;7.77;3.53;;;;;;;;;;5139100;27;20442;-71
2022/11/10 04:36:25;;;;;;;7.30;3.37;;;;;;;;;;5138822;27;20442;-71
2022/11/10 04:38:56;;;;;;;10.10;4.70;;;;;;;;;;5139218;27;20453;-72
2022/11/10 04:41:28;;;;;;;14.17;4.63;;;;;;;;;;5139388;27;20485;-71
2022/11/10 04:43:56;;;;;;;16.33;5.10;;;;;;;;;;5138560;27;20482;-72
2022/11/10 04:46:26;;;;;;;13.50;4.50;;;;;;;;;;5138830;27;20481;-71
2022/11/10 04:48:54;;;;;;;10.07;5.30;;;;;;;;;;5139179;27;20881;-72
2022/11/10 04:51:27;;;;;;;9.53;4.40;;;;;;;;;;5139270;27;20442;-72
2022/11/10 04:53:55;;;;;;;7.20;4.43;;;;;;;;;;5138629;27;20546;-72
2022/11/10 04:56:24;;;;;;;9.40;4.27;;;;;;;;;;5138346;27;20464;-71
2022/11/10 04:58:51;;;;;;;11.67;5.10;;;;;;;;;;5139286;27;20799;-72
2022/11/10 05:01:20;;;;;;;12.40;4.70;;;;;;;;;;5138522;27;20515;-72
2022/11/10 05:03:51;;;;;;;9.90;4.03;;;;;;;;;;5139114;27;20450;-72
2022/11/10 05:06:18;;;;;;;9.73;5.00;;;;;;;;;;5138810;27;20464;-72
2022/11/10 05:08:51;;;;;;;9.07;4.10;;;;;;;;;;5138443;27;20446;-71
2022/11/10 05:11:19;;;;;;;5.37;3.00;;;;;;;;;;5138167;27;20723;-71
2022/11/10 05:13:47;;;;;;;12.93;4.80;;;;;;;;;;5138397;27;20464;-71
2022/11/10 05:16:15;;;;;;;5.00;3.30;;;;;;;;;;5138171;27;20511;-72
2022/11/10 05:18:43;;;;;;;8.13;4.03;;;;;;;;;;5138110;27;20476;-72
2022/11/10 05:21:11;;;;;;;6.47;3.67;;;;;;;;;;5137492;27;20477;-72
2022/11/10 05:23:39;;;;;;;8.37;3.90;;;;;;;;;;5137282;27;20483;-72
2022/11/10 05:26:09;;;;;;;9.17;3.87;;;;;;;;;;5137782;27;20454;-72
2022/11/10 05:28:37;;;;;;;10.40;5.27;;;;;;;;;;5137962;27;20454;-72
2022/11/10 05:31:05;;;;;;;12.73;3.60;;;;;;;;;;5136978;27;20934;-72
2022/11/10 05:33:32;;;;;;;16.80;4.03;;;;;;;;;;5137504;27;20449;-72
2022/11/10 05:36:00;;;;;;;8.17;4.37;;;;;;;;;;5136700;27;20452;-73
2022/11/10 05:38:28;;;;;;;15.33;3.87;;;;;;;;;;5137744;27;20534;-72
2022/11/10 05:41:02;;;;;;;10.40;4.03;;;;;;;;;;5136961;27;20482;-73
2022/11/10 05:43:31;;;;;;;7.57;3.73;;;;;;;;;;5137892;27;20461;-72
2022/11/10 05:45:59;;;;;;;5.63;3.87;;;;;;;;;;5136624;27;20519;-72
2022/11/10 05:48:27;;;;;;;10.87;4.43;;;;;;;;;;5137889;27;20469;-72
2022/11/10 05:50:54;;;;;;;6.50;4.10;;;;;;;;;;5136790;27;21072;-71
2022/11/10 05:53:22;;;;;;;4.90;3.37;;;;;;;;;;5136190;27;20457;-71
2022/11/10 05:55:49;;;;;;;11.80;4.10;;;;;;;;;;5136023;27;21008;-71
2022/11/10 05:58:17;;;;;;;7.83;3.30;;;;;;;;;;5136582;27;20461;-71
2022/11/10 06:00:46;;;;;;;12.87;4.23;;;;;;;;;;5136827;27;20609;-72
2022/11/10 06:03:15;;;;;;;18.70;3.90;;;;;;;;;;5135997;27;20458;-72
2022/11/10 06:05:43;;;;;;;6.40;3.60;;;;;;;;;;5136386;27;20453;-71
2022/11/10 06:08:11;;;;;;;10.37;4.03;;;;;;;;;;5136514;27;20491;-71
2022/11/10 06:10:39;;;;;;;12.17;5.60;;;;;;;;;;5135271;27;20502;-72
2022/11/10 06:13:06;;;;;;;9.47;4.23;;;;;;;;;;5136006;27;20477;-72
2022/11/10 06:15:34;;;;;;;11.20;4.67;;;;;;;;;;5135517;27;20460;-72
2022/11/10 06:18:03;;;;;;;9.50;3.80;;;;;;;;;;5135935;27;20454;-71
2022/11/10 06:20:30;;;;;;;13.17;4.90;;;;;;;;;;5135034;28;20474;-71
2022/11/10 06:22:59;;;;;;;9.90;4.33;;;;;;;;;;5134259;28;20458;-72
2022/11/10 06:25:28;;;;;;;10.80;4.50;;;;;;;;;;5134671;28;20453;-72
2022/11/10 06:27:55;;;;;;;8.83;4.07;;;;;;;;;;5134445;28;20536;-71
2022/11/10 06:30:23;;;;;;;11.83;6.13;;;;;;;;;;5133855;28;20440;-74
2022/11/10 06:32:51;;;;;;;8.70;4.03;;;;;;;;;;5134795;28;20468;-72
2022/11/10 06:35:20;;;;;;;7.70;4.30;;;;;;;;;;5133472;28;20992;-71
2022/11/10 06:37:57;;;;;;;8.70;4.63;;;;;;;;;;5133933;28;21038;-72
2022/11/10 06:40:25;;;;;;;8.20;4.60;;;;;;;;;;5134099;28;20477;-71
2022/11/10 06:42:52;;;;;;;11.20;5.07;;;;;;;;;;5131978;28;20880;-71
2022/11/10 06:45:20;;;;;;;11.53;6.53;;;;;;;;;;5133991;27;20454;-72
2022/11/10 06:47:47;;;;;;;6.40;3.80;;;;;;;;;;5134173;27;20458;-72
2022/11/10 06:50:16;;;;;;;14.10;5.53;;;;;;;;;;5132627;27;20450;-72
2022/11/10 06:52:45;;;;;;;10.87;5.10;;;;;;;;;;5133746;28;20857;-71
2022/11/10 06:55:15;;;;;;;10.43;5.20;;;;;;;;;;5133875;28;20457;-71
2022/11/10 06:57:42;;;;;;;7.67;4.67;;;;;;;;;;5131801;27;20466;-71
2022/11/10 07:00:11;;;;;;;11.43;5.07;;;;;;;;;;5136225;27;20725;-71
2022/11/10 07:02:41;;;;;;;12.93;4.97;;;;;;;;;;5137103;27;20454;-73
2022/11/10 07:05:08;;;;;;;9.57;5.30;;;;;;;;;;5136398;27;20518;-73
2022/11/10 07:07:40;;;;;;;10.20;6.03;;;;;;;;;;5136688;27;20530;-70
2022/11/10 07:10:10;;;;;;;7.93;5.10;;;;;;;;;;5138432;27;20529;-72
2022/11/10 07:12:40;;;;;;;10.93;5.17;;;;;;;;;;5124750;27;20900;-70
2022/11/10 07:15:14;;;;;;;7.17;4.23;;;;;;;;;;5136296;27;20448;-71
2022/11/10 07:17:42;;;;;;;9.23;6.07;;;;;;;;;;5136783;27;20479;-71
2022/11/10 07:20:13;;;;;;;7.57;5.10;;;;;;;;;;5135473;27;20446;-71
2022/11/10 07:22:41;;;;;;;11.83;5.07;;;;;;;;;;5137393;27;20457;-71
2022/11/10 07:25:13;;;;;;;14.23;5.70;;;;;;;;;;5136267;27;20529;-71
2022/11/10 07:27:42;;;;;;;8.47;4.80;;;;;;;;;;5135095;27;20457;-72
2022/11/10 07:30:19;;;;;;;17.53;5.00;;;;;;;;;;5137655;27;20532;-72
2022/11/10 07:32:47;;;;;;;8.60;4.60;;;;;;;;;;5117859;28;20482;-70
2022/11/10 07:35:22;;;;;;;13.13;5.17;;;;;;;;;;5124833;27;20730;-70
2022/11/10 07:37:51;;;;;;;12.13;4.60;;;;;;;;;;5131388;27;20469;-70
2022/11/10 07:40:20;;;;;;;9.33;5.37;;;;;;;;;;5135664;27;20481;-71
2022/11/10 07:42:48;;;;;;;18.50;5.83;;;;;;;;;;5135032;27;20454;-71
2022/11/10 07:45:20;;;;;;;11.03;4.87;;;;;;;;;;5138660;27;20465;-71
2022/11/10 07:47:49;;;;;;;8.77;5.80;;;;;;;;;;5139249;27;20450;-71
2022/11/10 07:50:17;;;;;;;15.50;7.97;;;;;;;;;;5137567;27;20472;-70
2022/11/10 07:52:44;;;;;;;10.93;4.77;;;;;;;;;;5138079;27;20518;-70
2022/11/10 07:55:12;;;;;;;9.10;5.90;;;;;;;;;;5137553;27;20449;-71
2022/11/10 07:57:54;;;;;;;11.70;7.07;;;;;;;;;;5132337;27;20652;-71
2022/11/10 08:00:28;;;;;;;11.90;4.77;;;;;;;;;;5133729;27;20530;-71
2022/11/10 08:03:09;;;;;;;13.17;5.60;;;;;;;;;;5123424;27;20454;-71
2022/11/10 08:05:38;;;;;;;12.17;6.33;;;;;;;;;;5135471;27;20462;-70
2022/11/10 08:08:06;;;;;;;11.30;5.80;;;;;;;;;;5136212;27;20520;-70
2022/11/10 08:10:37;;;;;;;13.47;6.80;;;;;;;;;;5135230;27;20484;-72
2022/11/10 08:13:20;;;;;;;10.80;4.67;;;;;;;;;;5134426;27;20452;-70
2022/11/10 08:15:56;;;;;;;14.63;6.73;;;;;;;;;;5127360;27;20446;-71
2022/11/10 08:18:25;;;;;;;15.07;5.90;;;;;;;;;;5136119;27;20581;-72
2022/11/10 08:20:53;;;;;;;13.70;6.57;;;;;;;;;;5134540;27;20587;-71
2022/11/10 08:23:20;;;;;;;17.73;5.87;;;;;;;;;;5134518;27;20537;-71
2022/11/10 08:26:06;;;;;;;13.70;6.50;;;;;;;;;;5128659;27;20461;-71
2022/11/10 08:28:45;;;;;;;15.80;6.90;;;;;;;;;;5134919;27;20453;-74
2022/11/10 08:31:26;;;;;;;9.03;5.77;;;;;;;;;;5132981;27;20463;-73
2022/11/10 08:34:03;;;;;;;19.83;6.60;;;;;;;;;;5134705;27;20973;-73
2022/11/10 08:36:30;;;;;;;14.97;6.90;;;;;;;;;;5131428;27;20884;-72
2022/11/10 08:38:58;;;;;;;13.23;7.13;;;;;;;;;;5136481;27;20522;-70
2022/11/10 08:41:25;;;;;;;15.30;7.73;;;;;;;;;;5137208;27;20482;-71
2022/11/10 08:44:00;;;;;;;12.00;6.43;;;;;;;;;;5135699;27;20466;-70
2022/11/10 08:46:32;;;;;;;23.30;8.63;;;;;;;;;;5133700;27;20928;-70
2022/11/10 08:49:00;;;;;;;15.63;8.30;;;;;;;;;;5136878;27;20872;-70
2022/11/10 08:51:38;;;;;;;17.60;8.00;;;;;;;;;;5136423;27;20464;-70
2022/11/10 08:54:06;;;;;;;11.67;7.57;;;;;;;;;;5127723;27;20557;-71
2022/11/10 08:56:36;;;;;;;25.47;7.60;;;;;;;;;;5135546;27;21058;-70
2022/11/10 08:59:09;;;;;;;7.67;3.70;;;;;;;;;;5135979;27;20889;-71
2022/11/10 09:01:51;;;;;;;16.53;8.30;;;;;;;;;;5136228;27;20503;-70
2022/11/10 09:04:28;;;;;;;11.50;6.93;;;;;;;;;;5133905;27;20461;-71
2022/11/10 09:07:09;;;;;;;9.73;7.43;;;;;;;;;;5135087;27;20445;-70
2022/11/10 09:09:41;;;;;;;12.67;6.50;;;;;;;;;;5132618;27;20487;-70
2022/11/10 09:12:22;;;;;;;19.47;7.57;;;;;;;;;;5136857;27;20556;-71
2022/11/10 09:15:18;;;;;;;11.00;7.03;;;;;;;;;;5132797;27;20473;-70
2022/11/10 09:17:49;;;;;;;15.70;7.40;;;;;;;;;;5135855;27;20769;-71
2022/11/10 09:20:23;;;;;;;12.53;6.90;;;;;;;;;;5117495;27;20472;-72
2022/11/10 09:22:53;;;;;;;15.67;7.27;;;;;;;;;;5130370;27;20566;-70
2022/11/10 09:25:20;;;;;;;15.40;7.40;;;;;;;;;;5132437;27;20469;-72
2022/11/10 09:27:51;;;;;;;13.80;6.50;;;;;;;;;;5133910;27;20811;-72
2022/11/10 09:30:22;;;;;;;12.20;6.27;;;;;;;;;;5125188;27;20470;-71
2022/11/10 09:32:59;;;;;;;17.07;7.13;;;;;;;;;;5133351;27;20480;-71
2022/11/10 09:41:55;;;;;;;16.83;6.27;;;;;;;;;;5141521;27;20492;-72
2022/11/10 09:44:35;;;;;;;14.27;7.27;;;;;;;;;;5134600;27;20442;-70
2022/11/10 09:47:15;;;;;;;15.73;8.33;;;;;;;;;;5135520;27;20857;-70
2022/11/10 09:49:52;;;;;;;19.60;9.20;;;;;;;;;;5135660;27;20457;-71
2022/11/10 09:52:21;;;;;;;21.13;7.93;;;;;;;;;;5136122;27;20527;-72
2022/11/10 09:54:55;;;;;;;14.27;7.10;;;;;;;;;;5131004;27;20473;-71
2022/11/10 09:57:44;;;;;;;13.97;5.73;;;;;;;;;;5127659;27;20457;-72
2022/11/10 10:00:14;;;;;;;7.70;5.30;;;;;;;;;;5135716;27;20457;-72
2022/11/10 10:03:08;;;;;;;15.77;8.93;;;;;;;;;;5136777;27;20482;-72
2022/11/10 10:05:52;;;;;;;16.63;8.27;;;;;;;;;;5125693;27;20722;-73
2022/11/10 10:08:39;;;;;;;17.90;7.93;;;;;;;;;;5103455;28;20469;-72
2022/11/10 10:11:20;;;;;;;9.90;5.83;;;;;;;;;;5114533;27;20509;-72
2022/11/10 10:13:56;;;;;;;13.10;7.80;;;;;;;;;;5112959;28;20486;-72
2022/11/10 10:16:34;;;;;;;10.70;5.47;;;;;;;;;;5108694;28;20825;-71
2022/11/10 10:19:21;;;;;;;13.13;6.53;;;;;;;;;;5106414;28;20442;-70
2022/11/10 10:22:15;;;;;;;13.77;6.10;;;;;;;;;;5100963;28;20479;-72
2022/11/10 10:24:52;;;;;;;16.03;4.63;;;;;;;;;;5104551;28;20847;-72
2022/11/10 10:27:26;;;;;;;9.90;6.07;;;;;;;;;;5096807;28;20993;-72
2022/11/10 10:30:16;;;;;;;;;;;;;;;;;;;;;
2022/11/10 10:32:44;;;;;;;13.30;4.90;;;;;;;;;;5110273;27;20457;-72
2022/11/10 10:35:14;;;;;;;18.03;6.00;;;;;;;;;;5132528;27;21104;-70
2022/11/10 10:37:46;;;;;;;9.37;5.13;;;;;;;;;;5110044;28;20459;-70
2022/11/10 10:40:19;;;;;;;16.67;8.03;;;;;;;;;;5105978;28;20921;-70
2022/11/10 10:42:47;;;;;;;14.70;6.50;;;;;;;;;;5116246;27;20623;-70
2022/11/10 10:45:19;;;;;;;16.23;6.07;;;;;;;;;;5102198;28;20477;-70
2022/11/10 10:48:04;;;;;;;13.17;6.00;;;;;;;;;;5108865;28;20490;-76
2022/11/10 10:50:41;;;;;;;12.37;5.33;;;;;;;;;;5115929;28;20469;-73
2022/11/10 10:53:34;;;;;;;15.53;5.67;;;;;;;;;;5104255;28;20487;-74
2022/11/10 10:56:10;;;;;;;9.33;5.13;;;;;;;;;;5112598;27;20458;-74
2022/11/10 10:58:56;;;;;;;9.60;5.20;;;;;;;;;;5113951;28;20450;-75
2022/11/10 11:01:28;;;;;;;13.50;5.00;;;;;;;;;;5103176;28;20524;-74
2022/11/10 11:03:58;;;;;;;11.57;5.00;;;;;;;;;;5110146;28;20497;-74
2022/11/10 11:06:38;;;;;;;10.37;4.47;;;;;;;;;;5116749;28;20451;-72
2022/11/10 11:09:11;;;;;;;18.60;4.93;;;;;;;;;;5108271;28;20539;-74
2022/11/10 11:11:45;;;;;;;12.00;5.40;;;;;;;;;;5114005;28;20544;-74
2022/11/10 11:14:33;;;;;;;10.83;4.53;;;;;;;;;;5116766;28;20458;-73
2022/11/10 11:20:14;;;;;;;9.17;4.43;;;;;;;;;;5115725;28;20558;-72
2022/11/10 11:23:01;;;;;;;14.93;5.00;;;;;;;;;;5116002;28;20482;-74
2022/11/10 11:25:35;;;;;;;9.80;3.40;;;;;;;;;;5095435;28;20451;-74
2022/11/10 11:28:18;;;;;;;16.30;4.77;;;;;;;;;;5095879;28;20459;-74
2022/11/10 11:30:53;;;;;;;13.13;4.17;;;;;;;;;;5109033;28;20457;-75
2022/11/10 11:33:27;;;;;;;7.07;3.80;;;;;;;;;;5111545;28;20477;-73
2022/11/10 11:36:05;;;;;;;14.07;4.20;;;;;;;;;;5115914;28;20927;-73
2022/11/10 11:38:45;;;;;;;9.20;3.30;;;;;;;;;;5117055;27;20924;-72
2022/11/10 11:41:23;;;;;;;6.03;3.53;;;;;;;;;;5108555;27;20459;-73
2022/11/10 11:44:19;;;;;;;9.60;5.10;;;;;;;;;;5094839;28;20503;-74
2022/11/10 11:47:02;;;;;;;20.80;4.80;;;;;;;;;;5103878;28;20869;-74
2022/11/10 11:53:02;;;;;;;13.00;5.03;;;;;;;;;;5117457;28;20465;-73
2022/11/10 11:55:49;;;;;;;19.30;5.07;;;;;;;;;;5108176;28;20462;-74
2022/11/10 11:58:42;;;;;;;14.10;4.70;;;;;;;;;;5116018;27;20475;-73
2022/11/10 12:07:43;;;;;;;8.77;4.20;;;;;;;;;;5110417;27;20475;-72
2022/11/10 12:10:35;;;;;;;13.67;5.07;;;;;;;;;;5110541;28;20455;-73
2022/11/10 12:13:40;;;;;;;;;;;;;;;;;;;;;
2022/11/10 12:16:42;;;;;;;18.60;5.93;;;;;;;;;;5109731;28;20467;-72
2022/11/10 12:19:21;;;;;;;12.13;5.00;;;;;;;;;;5115679;28;20880;-72
2022/11/10 12:22:03;;;;;;;8.80;5.03;;;;;;;;;;5114095;28;20478;-75
2022/11/10 12:25:11;;;;;;;;;;;;;;;;;;;;;
2022/11/10 12:30:43;;;;;;;10.37;3.73;;;;;;;;;;5114820;28;20461;-73
2022/11/10 12:36:37;;;;;;;10.23;4.90;;;;;;;;;;5100238;28;20450;-73
2022/11/10 12:42:35;;;;;;;10.23;3.97;;;;;;;;;;5013288;28;20490;-72
2022/11/10 12:45:10;;;;;;;9.87;3.43;;;;;;;;;;5103052;28;20711;-72
2022/11/10 12:47:58;;;;;;;8.20;3.77;;;;;;;;;;5112330;28;20537;-72
2022/11/10 12:50:45;;;;;;;12.43;3.60;;;;;;;;;;5112566;28;20902;-72
2022/11/10 12:53:19;;;;;;;5.27;2.73;;;;;;;;;;5099886;28;20470;-72
2022/11/10 12:56:08;;;;;;;22.07;4.20;;;;;;;;;;5107039;28;20446;-73
2022/11/10 12:58:56;;;;;;;7.67;4.03;;;;;;;;;;5094639;28;20465;-73
2022/11/10 13:01:53;;;;;;;5.57;3.20;;;;;;;;;;5104849;28;20491;-73
2022/11/10 13:04:49;;;;;;;8.67;3.20;;;;;;;;;;5102057;28;20501;-73
2022/11/10 13:07:34;;;;;;;18.70;3.40;;;;;;;;;;5080509;28;20486;-73
2022/11/10 13:10:20;;;;;;;7.53;3.23;;;;;;;;;;5108866;28;21006;-71
2022/11/10 13:13:18;;;;;;;7.47;3.53;;;;;;;;;;5107083;27;20582;-73
2022/11/10 13:16:04;;;;;;;9.13;3.03;;;;;;;;;;5137039;27;20573;-74
2022/11/10 13:21:51;;;;;;;4.63;2.30;;;;;;;;;;5093093;28;20929;-70
2022/11/10 13:24:28;;;;;;;10.27;4.03;;;;;;;;;;5101042;28;20470;-71
2022/11/10 13:27:19;;;;;;;13.23;2.93;;;;;;;;;;5110709;28;20881;-73
2022/11/10 13:30:08;;;;;;;3.43;1.83;;;;;;;;;;5113266;27;20467;-73
2022/11/10 13:32:42;;;;;;;8.40;2.77;;;;;;;;;;5127552;27;20468;-71
2022/11/10 13:35:36;;;;;;;11.23;3.63;;;;;;;;;;5111823;27;20859;-72
2022/11/10 13:38:23;;;;;;;6.97;2.60;;;;;;;;;;5117263;27;20495;-73
2022/11/10 13:41:03;;;;;;;16.17;4.40;;;;;;;;;;5128139;27;20853;-73
2022/11/10 13:44:00;;;;;;;;;;;;;;;;;;;;;
2022/11/10 13:46:46;;;;;;;6.10;2.00;;;;;;;;;;5116495;27;20465;-74
2022/11/10 13:52:25;;;;;;;5.53;1.90;;;;;;;;;;5108796;27;20461;-73
2022/11/10 13:55:08;;;;;;;11.97;2.60;;;;;;;;;;5113300;27;20455;-73
2022/11/10 13:57:43;;;;;;;7.33;2.00;;;;;;;;;;5114578;27;20955;-72
2022/11/10 14:00:29;;;;;;;8.83;3.13;;;;;;;;;;5113939;27;20497;-69
2022/11/10 14:06:17;;;;;;;6.80;2.67;;;;;;;;;;5113338;27;20532;-69
2022/11/10 14:08:56;;;;;;;4.93;2.00;;;;;;;;;;5098792;27;20565;-71
2022/11/10 14:11:29;;;;;;;6.90;2.97;;;;;;;;;;5102683;27;20795;-70
2022/11/10 14:17:19;;;;;;;9.63;2.33;;;;;;;;;;5090248;28;20564;-70
2022/11/10 14:20:20;;;;;;;6.97;2.17;;;;;;;;;;5111125;28;20863;-70
2022/11/10 14:23:00;;;;;;;4.37;2.23;;;;;;;;;;5095721;28;20476;-70
2022/11/10 14:28:36;;;;;;;7.47;2.87;;;;;;;;;;5094554;28;20485;-72
2022/11/10 14:31:22;;;;;;;5.70;2.50;;;;;;;;;;5096436;28;20905;-71
2022/11/10 14:34:00;;;;;;;8.37;2.10;;;;;;;;;;5110444;28;20570;-71
2022/11/10 14:36:34;;;;;;;12.37;2.40;;;;;;;;;;5101819;28;20502;-72
2022/11/10 14:39:13;;;;;;;19.67;3.00;;;;;;;;;;5110940;28;20462;-71
2022/11/10 14:44:33;;;;;;;5.50;1.80;;;;;;;;;;5122002;28;20567;-69
2022/11/10 14:47:19;;;;;;;7.43;2.17;;;;;;;;;;5109838;28;20486;-70
2022/11/10 14:50:09;;;;;;;7.07;2.20;;;;;;;;;;5108513;28;20463;-70
2022/11/10 14:52:46;;;;;;;6.53;2.63;;;;;;;;;;5112342;28;20466;-70
2022/11/10 14:55:16;;;;;;;7.53;2.90;;;;;;;;;;5109540;28;20911;-70
2022/11/10 14:57:47;;;;;;;23.00;8.00;;;;;;;;;;5113837;28;20447;-69
2022/11/10 15:00:34;;;;;;;14.93;2.57;;;;;;;;;;5106188;28;20853;-69
2022/11/10 15:03:04;;;;;;;13.80;2.10;;;;;;;;;;5112961;28;20504;-70
2022/11/10 15:05:33;;;;;;;9.03;5.27;;;;;;;;;;5110398;28;20505;-71
2022/11/10 15:08:05;;;;;;;9.00;2.30;;;;;;;;;;5099153;28;20921;-69
2022/11/10 15:11:06;;;;;;;9.70;1.90;;;;;;;;;;5108115;28;20609;-70
2022/11/10 15:13:45;;;;;;;11.40;3.13;;;;;;;;;;5088337;28;20465;-70
2022/11/10 15:16:27;;;;;;;8.03;2.17;;;;;;;;;;5097794;28;20458;-70
2022/11/10 15:19:23;;;;;;;9.83;1.80;;;;;;;;;;5106804;28;20486;-70
2022/11/10 15:21:51;;;;;;;8.90;2.33;;;;;;;;;;5116865;27;20446;-71
2022/11/10 15:24:48;;;;;;;7.60;3.20;;;;;;;;;;5117420;28;20498;-70
2022/11/10 15:27:26;;;;;;;12.77;2.57;;;;;;;;;;5111582;28;20560;-71
2022/11/10 15:30:01;;;;;;;10.23;2.07;;;;;;;;;;5111426;28;20526;-70
2022/11/10 15:32:32;;;;;;;10.00;2.37;;;;;;;;;;5105274;27;20470;-70
2022/11/10 15:35:12;;;;;;;8.43;2.20;;;;;;;;;;5096782;28;20524;-70
2022/11/10 15:37:42;;;;;;;5.17;1.70;;;;;;;;;;5106761;27;20474;-70
2022/11/10 15:40:40;;;;;;;6.90;1.70;;;;;;;;;;5134045;27;21157;-70
2022/11/10 15:43:14;;;;;;;12.90;2.23;;;;;;;;;;5109766;27;20599;-72
2022/11/10 15:45:43;;;;;;;8.30;1.53;;;;;;;;;;5143645;27;20524;-71
2022/11/10 15:48:15;;;;;;;11.80;2.10;;;;;;;;;;5138955;27;20844;-70
2022/11/10 15:50:46;;;;;;;9.00;2.80;;;;;;;;;;5134787;27;20462;-70
2022/11/10 15:53:15;;;;;;;6.20;2.23;;;;;;;;;;5136783;27;20454;-69
2022/11/10 15:55:44;;;;;;;9.27;3.10;;;;;;;;;;5135194;27;20713;-71
2022/11/10 15:58:13;;;;;;;16.40;1.60;;;;;;;;;;5140659;27;20503;-68
2022/11/10 16:00:41;;;;;;;10.70;1.97;;;;;;;;;;5139410;27;20492;-70
2022/11/10 16:03:11;;;;;;;7.77;2.10;;;;;;;;;;5136400;27;20589;-70
2022/11/10 16:05:40;;;;;;;11.03;3.40;;;;;;;;;;5136454;27;20541;-70
2022/11/10 16:08:19;;;;;;;13.97;3.00;;;;;;;;;;5139557;27;20457;-71
2022/11/10 16:10:50;;;;;;;9.60;2.93;;;;;;;;;;5141187;27;21160;-72
2022/11/10 16:13:21;;;;;;;9.50;2.93;;;;;;;;;;5134747;27;20465;-70
2022/11/10 16:15:49;;;;;;;14.37;3.63;;;;;;;;;;5147974;27;20467;-70
2022/11/10 16:18:20;;;;;;;10.93;3.40;;;;;;;;;;5149071;27;20584;-70
2022/11/10 16:20:53;;;;;;;6.83;1.60;;;;;;;;;;5127365;27;20463;-70
2022/11/10 16:23:23;;;;;;;11.30;2.40;;;;;;;;;;5131151;27;20478;-70
2022/11/10 16:25:55;;;;;;;16.33;4.90;;;;;;;;;;5130011;27;20482;-72